Mars Hill, Mississippi
Current Conditions -  °F | °C
As of 10:53 PM on Wednesday 22 Oct 2014 (Local Time) from KMCB Reporting Station
Clear Clear  
Wind Chill: 60°   Ceiling: Unl
Heat Index: 60°   Visibility: 10mi
Dew Point: 49°   Wind: 5mph
Humidity: 67%   Direction: 10°N
Pressure: 30.12"   Gusts: NA
Location:  31.2993°N, 90.4958°W
Report Text: KMCB 230353Z AUTO 01004KT 10SM CLR 16/09 A3012 RMK AO2 SLP195 T01560094
Loading
Personal Weather Stations






























Interactive Weather Map
Tropical Storm Tracking
New forecast layout! Learn more

10-Day Weather Forecast

Advertisements
Track Severe Weather on mobile